createdAt,value
2023-05-19T00:00:52.304Z,96305.09
2023-05-19T00:01:55.020Z,96298.31
2023-05-19T00:02:57.287Z,96298.13
2023-05-19T00:04:02.721Z,96294.63
2023-05-19T00:05:05.065Z,96297.44
2023-05-19T00:06:10.605Z,96304.63
2023-05-19T00:07:13.121Z,96291.59
2023-05-19T00:08:16.385Z,96298.31
2023-05-19T00:09:18.496Z,96296.69
2023-05-19T00:10:20.515Z,96298.47
2023-05-19T00:11:22.910Z,96295.84
2023-05-19T00:12:24.840Z,96291.50
2023-05-19T00:13:27.198Z,96292.66
2023-05-19T00:14:29.418Z,96296.84
2023-05-19T00:15:31.453Z,96285.06
2023-05-19T00:16:34.002Z,96290.34
2023-05-19T00:17:37.089Z,96297.22
2023-05-19T00:18:38.844Z,96292.75
2023-05-19T00:19:40.675Z,96292.41
2023-05-19T00:20:42.889Z,96289.84
2023-05-19T00:21:44.512Z,96295.50
2023-05-19T00:22:46.180Z,96284.22
2023-05-19T00:23:47.869Z,96291.94
2023-05-19T00:24:49.574Z,96280.31
2023-05-19T00:25:52.317Z,96285.78
2023-05-19T00:26:54.015Z,96282.53
2023-05-19T00:27:55.769Z,96287.66
2023-05-19T00:28:57.472Z,96289.56
2023-05-19T00:29:59.126Z,96284.38
2023-05-19T00:31:02.265Z,96287.88
2023-05-19T00:32:04.268Z,96285.69
2023-05-19T00:33:08.903Z,96279.88
2023-05-19T00:34:10.527Z,96280.03
2023-05-19T00:35:12.395Z,96277.00
2023-05-19T00:36:14.127Z,96279.88
2023-05-19T00:37:15.773Z,96276.63
2023-05-19T00:38:17.570Z,96274.09
2023-05-19T00:39:19.255Z,96279.69
2023-05-19T00:40:21.396Z,96276.84
2023-05-19T00:41:22.998Z,96274.44
2023-05-19T00:42:24.615Z,96277.50
2023-05-19T00:43:26.375Z,96278.97
2023-05-19T00:44:28.319Z,96272.66
2023-05-19T00:45:29.986Z,96269.31
2023-05-19T00:46:31.617Z,96272.13
2023-05-19T00:47:33.550Z,96265.06
2023-05-19T00:48:35.174Z,96263.13
2023-05-19T00:49:36.825Z,96267.94
2023-05-19T00:50:38.740Z,96269.81
2023-05-19T00:51:40.798Z,96266.63
2023-05-19T00:52:42.494Z,96263.69
2023-05-19T00:53:48.592Z,96261.00
2023-05-19T00:54:51.734Z,96257.28
2023-05-19T00:55:53.558Z,96258.59
2023-05-19T00:56:55.450Z,96263.88
2023-05-19T00:57:57.371Z,96256.69
2023-05-19T00:58:59.518Z,96256.16
2023-05-19T01:00:01.325Z,96255.06
2023-05-19T01:01:04.480Z,96255.56
2023-05-19T01:02:06.910Z,96246.00
2023-05-19T01:03:11.471Z,96260.41
2023-05-19T01:04:47.004Z,96249.25
2023-05-19T01:05:49.803Z,96246.50
2023-05-19T01:06:54.835Z,96246.47
2023-05-19T01:07:56.633Z,96243.53
2023-05-19T01:08:58.371Z,96240.91
2023-05-19T01:10:00.057Z,96233.06
2023-05-19T01:11:01.796Z,96239.13
2023-05-19T01:12:03.981Z,96235.75
2023-05-19T01:13:06.316Z,96243.47
2023-05-19T01:14:08.117Z,96235.44
2023-05-19T01:15:10.332Z,96246.22
2023-05-19T01:16:13.134Z,96240.25
2023-05-19T01:17:23.149Z,96244.78
2023-05-19T01:18:47.839Z,96245.50
2023-05-19T01:20:18.561Z,96244.09
2023-05-19T01:21:30.468Z,96248.28
2023-05-19T01:23:05.899Z,96238.53
2023-05-19T01:24:18.418Z,96257.13
2023-05-19T01:25:57.271Z,96248.25
2023-05-19T01:27:31.459Z,96251.97
2023-05-19T01:28:57.399Z,96251.41
2023-05-19T01:30:25.379Z,96256.13
2023-05-19T01:31:27.128Z,96247.44
2023-05-19T01:32:29.322Z,96242.94
2023-05-19T01:33:31.506Z,96247.72
2023-05-19T01:34:36.099Z,96255.56
2023-05-19T01:35:39.168Z,96250.34
2023-05-19T01:36:41.861Z,96253.47
2023-05-19T01:37:45.325Z,96248.88
2023-05-19T01:38:49.969Z,96265.44
2023-05-19T01:39:52.407Z,96240.81
2023-05-19T01:40:54.541Z,96250.75
2023-05-19T01:41:56.631Z,96257.00
2023-05-19T01:43:00.243Z,96265.66
2023-05-19T01:44:02.361Z,96248.38
2023-05-19T01:45:06.597Z,96259.09
2023-05-19T01:46:08.515Z,96255.75
2023-05-19T01:47:10.996Z,96259.00
2023-05-19T01:48:13.485Z,96257.81
2023-05-19T01:49:15.066Z,96259.44
2023-05-19T01:50:19.435Z,96266.47
2023-05-19T01:51:21.072Z,96245.84
2023-05-19T01:52:22.746Z,96250.31
2023-05-19T01:53:24.954Z,96250.44
2023-05-19T01:54:26.568Z,96251.78
2023-05-19T01:55:28.184Z,96260.56
2023-05-19T01:56:49.603Z,96266.00
2023-05-19T01:58:13.200Z,96260.22
2023-05-19T01:59:44.791Z,96256.75
2023-05-19T02:01:19.955Z,96263.28
2023-05-19T02:02:36.997Z,96258.44
2023-05-19T02:03:59.408Z,96262.28
2023-05-19T02:05:10.397Z,96259.44
2023-05-19T02:06:29.926Z,96258.63
2023-05-19T02:07:42.802Z,96244.91
2023-05-19T02:08:52.160Z,96250.75
2023-05-19T02:10:05.834Z,96251.78
2023-05-19T02:11:17.971Z,96236.81
2023-05-19T02:12:24.888Z,96252.84
2023-05-19T02:13:30.358Z,96227.09
2023-05-19T02:14:51.123Z,96250.03
2023-05-19T02:15:52.737Z,96242.88
2023-05-19T02:16:57.717Z,96240.06
2023-05-19T02:18:00.299Z,96245.28
2023-05-19T02:19:02.693Z,96237.91
2023-05-19T02:20:05.009Z,96236.97
2023-05-19T02:21:06.878Z,96232.25
2023-05-19T02:22:08.519Z,96228.91
2023-05-19T02:23:10.143Z,96245.47
2023-05-19T02:24:11.738Z,96232.75
2023-05-19T02:25:13.446Z,96244.78
2023-05-19T02:26:15.078Z,96237.91
2023-05-19T02:27:16.674Z,96232.50
2023-05-19T02:28:18.790Z,96233.13
2023-05-19T02:29:21.044Z,96233.13
2023-05-19T02:30:22.761Z,96224.88
2023-05-19T02:31:24.429Z,96231.50
2023-05-19T02:32:26.205Z,96229.28
2023-05-19T02:33:30.388Z,96232.94
2023-05-19T02:34:32.034Z,96233.97
2023-05-19T02:35:33.893Z,96236.97
2023-05-19T02:36:39.051Z,96239.09
2023-05-19T02:37:40.679Z,96238.28
2023-05-19T02:38:42.599Z,96232.00
2023-05-19T02:39:44.591Z,96235.41
2023-05-19T02:40:47.243Z,96243.44
2023-05-19T02:41:48.977Z,96234.88
2023-05-19T02:42:50.620Z,96243.16
2023-05-19T02:43:52.263Z,96238.31
2023-05-19T02:44:55.070Z,96233.78
2023-05-19T02:45:56.723Z,96234.94
2023-05-19T02:46:58.350Z,96234.59
2023-05-19T02:48:00.028Z,96231.56
2023-05-19T02:49:01.732Z,96228.66
2023-05-19T02:50:03.624Z,96234.75
2023-05-19T02:51:05.777Z,96242.16
2023-05-19T02:52:07.462Z,96229.28
2023-05-19T02:53:09.439Z,96232.94
2023-05-19T02:54:11.213Z,96226.75
2023-05-19T02:55:17.031Z,96231.56
2023-05-19T02:56:18.682Z,96216.00
2023-05-19T02:57:20.583Z,96227.56
2023-05-19T02:58:22.203Z,96220.59
2023-05-19T02:59:25.610Z,96228.31
2023-05-19T03:00:27.469Z,96227.09
2023-05-19T03:01:29.132Z,96232.38
2023-05-19T03:02:33.331Z,96226.06
2023-05-19T03:03:35.301Z,96221.25
2023-05-19T03:04:41.730Z,96223.69
2023-05-19T03:05:43.676Z,96221.94
2023-05-19T03:06:45.454Z,96223.53
2023-05-19T03:07:47.494Z,96218.06
2023-05-19T03:08:49.834Z,96205.63
2023-05-19T03:09:52.440Z,96214.63
2023-05-19T03:10:54.057Z,96210.50
2023-05-19T03:11:55.764Z,96202.44
2023-05-19T03:12:57.378Z,96208.72
2023-05-19T03:13:58.982Z,96213.53
2023-05-19T03:15:01.050Z,96209.50
2023-05-19T03:16:03.492Z,96210.78
2023-05-19T03:17:08.502Z,96210.50
2023-05-19T03:18:11.934Z,96211.19
2023-05-19T03:19:13.667Z,96212.91
2023-05-19T03:20:17.978Z,96218.72
2023-05-19T03:21:19.613Z,96212.91
2023-05-19T03:22:21.439Z,96203.41
2023-05-19T03:23:23.190Z,96205.47
2023-05-19T03:24:24.850Z,96207.19
2023-05-19T03:25:26.592Z,96205.13
2023-05-19T03:26:29.353Z,96205.75
2023-05-19T03:27:31.614Z,96201.72
2023-05-19T03:28:33.229Z,96210.41
2023-05-19T03:29:34.901Z,96205.72
2023-05-19T03:30:37.348Z,96195.69
2023-05-19T03:32:01.748Z,96204.09
2023-05-19T03:33:05.420Z,96210.31
2023-05-19T03:34:07.162Z,96202.00
2023-05-19T03:35:08.971Z,96205.38
2023-05-19T03:36:12.609Z,96201.25
2023-05-19T03:37:14.482Z,96200.03
2023-05-19T03:38:16.339Z,96209.91
2023-05-19T03:39:25.651Z,96200.63
2023-05-19T03:40:28.057Z,96192.81
2023-05-19T03:41:36.616Z,96200.72
2023-05-19T03:42:38.616Z,96200.06
2023-05-19T03:43:40.928Z,96197.34
2023-05-19T03:44:44.675Z,96194.56
2023-05-19T03:45:46.897Z,96204.09
2023-05-19T03:47:17.699Z,96205.72
2023-05-19T03:48:21.824Z,96196.03
2023-05-19T03:49:42.047Z,96207.44
2023-05-19T03:50:44.530Z,96203.09
2023-05-19T03:51:53.653Z,96215.84
2023-05-19T03:53:21.947Z,96208.25
2023-05-19T03:54:23.571Z,96198.75
2023-05-19T03:55:26.163Z,96204.06
2023-05-19T03:56:28.355Z,96198.91
2023-05-19T03:57:29.950Z,96216.91
2023-05-19T03:58:31.535Z,96213.91
2023-05-19T03:59:33.242Z,96219.78
2023-05-19T04:00:35.135Z,96214.03
2023-05-19T04:01:37.884Z,96215.63
2023-05-19T04:02:40.090Z,96213.09
2023-05-19T04:03:42.555Z,96218.72
2023-05-19T04:04:44.176Z,96218.06
2023-05-19T04:05:45.982Z,96224.75
2023-05-19T04:06:48.703Z,96211.00
2023-05-19T04:07:51.056Z,96219.72
2023-05-19T04:08:52.797Z,96217.00
2023-05-19T04:09:54.429Z,96205.38
2023-05-19T04:10:56.645Z,96213.91
2023-05-19T04:11:58.259Z,96213.47
2023-05-19T04:12:59.893Z,96215.69
2023-05-19T04:14:01.516Z,96206.19
2023-05-19T04:15:03.320Z,96214.88
2023-05-19T04:16:05.748Z,96217.66
2023-05-19T04:17:07.579Z,96210.28
2023-05-19T04:18:09.257Z,96221.81
2023-05-19T04:19:10.968Z,96213.47
2023-05-19T04:20:12.878Z,96211.38
2023-05-19T04:21:14.516Z,96218.97
2023-05-19T04:22:16.259Z,96217.03
2023-05-19T04:23:17.896Z,96213.16
2023-05-19T04:24:19.492Z,96211.03
2023-05-19T04:25:21.602Z,96206.69
2023-05-19T04:26:24.864Z,96210.22
2023-05-19T04:27:28.014Z,96209.41
2023-05-19T04:28:30.172Z,96209.13
2023-05-19T04:29:32.637Z,96209.69
2023-05-19T04:30:34.676Z,96209.06
2023-05-19T04:31:37.117Z,96214.88
2023-05-19T04:32:41.420Z,96206.50
2023-05-19T04:33:43.212Z,96209.78
2023-05-19T04:34:46.100Z,96209.66
2023-05-19T04:35:52.897Z,96196.09
2023-05-19T04:36:55.526Z,96217.00
2023-05-19T04:37:57.542Z,96215.41
2023-05-19T04:39:07.292Z,96214.75
2023-05-19T04:40:11.158Z,96212.34
2023-05-19T04:41:13.109Z,96212.75
2023-05-19T04:42:19.194Z,96211.03
2023-05-19T04:43:22.222Z,96210.41
2023-05-19T04:44:25.006Z,96206.56
2023-05-19T04:45:26.985Z,96212.47
2023-05-19T04:46:31.239Z,96213.63
2023-05-19T04:47:36.950Z,96220.84
2023-05-19T04:48:40.110Z,96218.47
2023-05-19T04:49:41.836Z,96214.81
2023-05-19T04:50:43.491Z,96209.16
2023-05-19T04:51:46.154Z,96212.72
2023-05-19T04:52:47.813Z,96211.63
2023-05-19T04:53:49.764Z,96211.13
2023-05-19T04:54:51.461Z,96203.47
2023-05-19T04:55:53.059Z,96216.28
2023-05-19T04:56:54.723Z,96214.03
2023-05-19T04:57:56.474Z,96209.38
2023-05-19T04:58:58.266Z,96197.63
2023-05-19T05:00:01.495Z,96203.59
2023-05-19T05:01:13.756Z,96214.50
2023-05-19T05:02:16.114Z,96213.72
2023-05-19T05:03:18.466Z,96209.53
2023-05-19T05:04:21.602Z,96209.53
2023-05-19T05:05:23.877Z,96211.16
2023-05-19T05:06:26.543Z,96220.47
2023-05-19T05:07:29.766Z,96205.34
2023-05-19T05:08:33.533Z,96209.13
2023-05-19T05:09:35.762Z,96207.34
2023-05-19T05:10:37.520Z,96210.25
2023-05-19T05:11:40.200Z,96212.91
2023-05-19T05:12:42.282Z,96202.84
2023-05-19T05:13:44.976Z,96195.91
2023-05-19T05:14:46.938Z,96202.34
2023-05-19T05:15:49.192Z,96205.59
2023-05-19T05:16:51.919Z,96208.16
2023-05-19T05:17:58.085Z,96212.81
2023-05-19T05:19:01.259Z,96209.59
2023-05-19T05:20:05.975Z,96189.03
2023-05-19T05:21:08.109Z,96206.75
2023-05-19T05:22:10.181Z,96209.63
2023-05-19T05:23:15.204Z,96195.53
2023-05-19T05:24:18.851Z,96201.63
2023-05-19T05:25:25.552Z,96199.09
2023-05-19T05:26:30.464Z,96199.13
2023-05-19T05:27:32.687Z,96206.66
2023-05-19T05:28:34.403Z,96193.78
2023-05-19T05:29:36.763Z,96198.78
2023-05-19T05:30:41.483Z,96198.81
2023-05-19T05:31:43.105Z,96193.34
2023-05-19T05:32:45.665Z,96195.44
2023-05-19T05:34:01.712Z,96203.50
2023-05-19T05:35:06.551Z,96204.09
2023-05-19T05:36:08.643Z,96192.06
2023-05-19T05:37:11.378Z,96198.47
2023-05-19T05:38:14.258Z,96204.63
2023-05-19T05:39:16.966Z,96195.75
2023-05-19T05:40:20.319Z,96194.03
2023-05-19T05:41:22.446Z,96204.97
2023-05-19T05:42:27.671Z,96194.66
2023-05-19T05:43:31.224Z,96205.94
2023-05-19T05:44:35.901Z,96198.19
2023-05-19T05:45:39.227Z,96195.47
2023-05-19T05:46:41.606Z,96198.03
2023-05-19T05:47:44.311Z,96203.69
2023-05-19T05:48:46.476Z,96200.16
2023-05-19T05:49:48.738Z,96206.28
2023-05-19T05:50:52.352Z,96209.19
2023-05-19T05:52:05.474Z,96211.41
2023-05-19T05:53:20.412Z,96200.19
2023-05-19T05:54:25.015Z,96210.44
2023-05-19T05:55:28.011Z,96208.06
2023-05-19T05:56:29.884Z,96212.72
2023-05-19T05:57:31.537Z,96200.97
2023-05-19T05:58:36.352Z,96222.69
2023-05-19T05:59:40.685Z,96216.22
2023-05-19T06:00:43.734Z,96213.50
2023-05-19T06:01:45.440Z,96212.69
2023-05-19T06:02:49.367Z,96207.41
2023-05-19T06:03:52.431Z,96219.78
2023-05-19T06:04:57.582Z,96213.69
2023-05-19T06:05:59.471Z,96220.25
2023-05-19T06:07:01.891Z,96212.53
2023-05-19T06:08:07.971Z,96211.13
2023-05-19T06:09:10.272Z,96214.47
2023-05-19T06:10:11.934Z,96217.53
2023-05-19T06:11:13.607Z,96201.78
2023-05-19T06:12:16.260Z,96207.75
2023-05-19T06:13:24.156Z,96205.13
2023-05-19T06:14:25.973Z,96202.56
2023-05-19T06:15:45.975Z,96209.63
2023-05-19T06:16:55.696Z,96205.44
2023-05-19T06:17:57.422Z,96201.44
2023-05-19T06:18:59.229Z,96200.97
2023-05-19T06:20:01.268Z,96196.91
2023-05-19T06:21:03.520Z,96201.72
2023-05-19T06:22:05.518Z,96196.00
2023-05-19T06:23:08.193Z,96196.00
2023-05-19T06:24:10.794Z,96196.34
2023-05-19T06:25:12.597Z,96199.28
2023-05-19T06:26:15.279Z,96194.69
2023-05-19T06:27:16.927Z,96213.06
2023-05-19T06:28:18.607Z,96204.34
2023-05-19T06:29:20.382Z,96196.59
2023-05-19T06:30:24.993Z,96206.78
2023-05-19T06:31:35.765Z,96195.78
2023-05-19T06:32:49.316Z,96199.25
2023-05-19T06:33:51.052Z,96196.97
2023-05-19T06:34:55.943Z,96195.91
2023-05-19T06:35:57.602Z,96200.94
2023-05-19T06:36:59.476Z,96213.44
2023-05-19T06:38:01.240Z,96195.13
2023-05-19T06:39:03.049Z,96202.03
2023-05-19T06:40:07.032Z,96199.09
2023-05-19T06:41:08.954Z,96202.91
2023-05-19T06:42:10.794Z,96192.47
2023-05-19T06:43:25.789Z,96202.84
2023-05-19T06:44:29.687Z,96192.91
2023-05-19T06:45:31.358Z,96197.25
2023-05-19T06:46:35.289Z,96204.84
2023-05-19T06:47:37.121Z,96204.34
2023-05-19T06:48:39.216Z,96201.50
2023-05-19T06:49:42.745Z,96203.97
2023-05-19T06:50:44.660Z,96204.47
2023-05-19T06:51:46.624Z,96213.75
2023-05-19T06:52:48.593Z,96201.81
2023-05-19T06:53:50.305Z,96210.91
2023-05-19T06:54:51.978Z,96214.84
2023-05-19T06:55:59.425Z,96213.56
2023-05-19T06:57:05.718Z,96215.25
2023-05-19T06:58:07.950Z,96224.59
2023-05-19T06:59:09.791Z,96215.97
2023-05-19T07:00:15.152Z,96214.78
2023-05-19T07:01:21.374Z,96212.06
2023-05-19T07:02:28.441Z,96218.06
2023-05-19T07:03:31.214Z,96214.00
2023-05-19T07:04:33.943Z,96219.00
2023-05-19T07:05:35.711Z,96220.75
2023-05-19T07:06:37.641Z,96222.06
2023-05-19T07:07:39.320Z,96226.22
2023-05-19T07:08:45.559Z,96218.44
2023-05-19T07:09:47.523Z,96221.41
2023-05-19T07:10:49.226Z,96216.97
2023-05-19T07:11:52.079Z,96222.91
2023-05-19T07:12:53.894Z,96219.34
2023-05-19T07:13:58.441Z,96216.72
2023-05-19T07:15:03.495Z,96206.56
2023-05-19T07:16:05.582Z,96214.00
2023-05-19T07:17:07.966Z,96213.28
2023-05-19T07:18:11.433Z,96209.22
2023-05-19T07:19:13.540Z,96213.91
2023-05-19T07:20:15.200Z,96208.59
2023-05-19T07:21:16.970Z,96210.34
2023-05-19T07:22:18.576Z,96205.97
2023-05-19T07:23:20.340Z,96209.03
2023-05-19T07:24:22.549Z,96214.53
2023-05-19T07:25:24.272Z,96218.34
2023-05-19T07:26:26.821Z,96208.41
2023-05-19T07:27:28.478Z,96211.56
2023-05-19T07:28:30.152Z,96215.22
2023-05-19T07:29:31.858Z,96215.75
2023-05-19T07:30:33.951Z,96213.81
2023-05-19T07:31:35.832Z,96204.38
2023-05-19T07:32:37.609Z,96205.13
2023-05-19T07:33:39.352Z,96205.47
2023-05-19T07:34:40.972Z,96206.41
2023-05-19T07:35:42.705Z,96205.28
2023-05-19T07:36:44.343Z,96213.50
2023-05-19T07:37:46.114Z,96206.16
2023-05-19T07:38:47.940Z,96201.72
2023-05-19T07:39:49.614Z,96209.16
2023-05-19T07:40:51.232Z,96209.47
2023-05-19T07:41:55.657Z,96203.84
2023-05-19T07:42:57.297Z,96208.06
2023-05-19T07:43:59.055Z,96197.69
2023-05-19T07:45:01.187Z,96201.53
2023-05-19T07:46:02.968Z,96203.00
2023-05-19T07:47:04.686Z,96204.53
2023-05-19T07:48:06.385Z,96205.34
2023-05-19T07:49:08.082Z,96204.13
2023-05-19T07:50:09.829Z,96197.28
2023-05-19T07:51:12.669Z,96203.00
2023-05-19T07:52:14.349Z,96207.00
2023-05-19T07:53:16.690Z,96202.88
2023-05-19T07:54:18.615Z,96201.78
2023-05-19T07:55:23.104Z,96194.41
2023-05-19T07:56:24.985Z,96192.69
2023-05-19T07:57:26.730Z,96200.03
2023-05-19T07:58:28.431Z,96191.22
2023-05-19T07:59:30.122Z,96201.09
2023-05-19T08:00:32.040Z,96202.88
2023-05-19T08:01:34.208Z,96203.47
2023-05-19T08:02:35.927Z,96201.09
2023-05-19T08:03:37.795Z,96197.81
2023-05-19T08:04:39.636Z,96193.81
2023-05-19T08:05:41.367Z,96183.59
2023-05-19T08:06:44.364Z,96206.16
2023-05-19T08:07:46.133Z,96202.16
2023-05-19T08:08:47.822Z,96197.44
2023-05-19T08:09:49.477Z,96195.06
2023-05-19T08:10:51.296Z,96200.81
2023-05-19T08:11:52.981Z,96194.81
2023-05-19T08:12:54.750Z,96187.84
2023-05-19T08:13:56.414Z,96190.59
2023-05-19T08:15:00.369Z,96192.19
2023-05-19T08:16:03.093Z,96199.06
2023-05-19T08:17:06.209Z,96203.44
2023-05-19T08:18:07.904Z,96199.31
2023-05-19T08:19:09.770Z,96192.31
2023-05-19T08:20:14.390Z,96195.88
2023-05-19T08:21:16.179Z,96182.34
2023-05-19T08:22:17.861Z,96188.84
2023-05-19T08:23:19.509Z,96195.75
2023-05-19T08:24:21.131Z,96191.19
2023-05-19T08:25:23.086Z,96185.16
2023-05-19T08:26:24.725Z,96185.34
2023-05-19T08:27:26.381Z,96183.00
2023-05-19T08:28:28.004Z,96190.56
2023-05-19T08:29:29.592Z,96194.75
2023-05-19T08:30:31.405Z,96186.09
2023-05-19T08:31:33.322Z,96188.38
2023-05-19T08:32:34.995Z,96191.81
2023-05-19T08:33:36.637Z,96191.69
2023-05-19T08:34:38.321Z,96185.50
2023-05-19T08:35:39.949Z,96196.38
2023-05-19T08:36:41.930Z,96195.16
2023-05-19T08:37:43.606Z,96189.88
2023-05-19T08:38:45.577Z,96183.34
2023-05-19T08:39:47.475Z,96196.34
2023-05-19T08:40:49.136Z,96196.88
2023-05-19T08:41:50.790Z,96190.22
2023-05-19T08:42:52.407Z,96193.69
2023-05-19T08:43:54.377Z,96180.34
2023-05-19T08:44:56.105Z,96188.47
2023-05-19T08:45:59.733Z,96179.94
2023-05-19T08:47:05.301Z,96187.56
2023-05-19T08:48:07.829Z,96191.19
2023-05-19T08:49:13.326Z,96184.72
2023-05-19T08:50:17.924Z,96186.13
2023-05-19T08:51:25.460Z,96179.56
2023-05-19T08:52:33.136Z,96190.63
2023-05-19T08:53:41.053Z,96194.66
2023-05-19T08:55:01.215Z,96181.63
2023-05-19T08:56:11.808Z,96184.16
2023-05-19T08:57:13.762Z,96202.41
2023-05-19T08:58:16.561Z,96178.50
2023-05-19T08:59:18.393Z,96182.84
2023-05-19T09:00:20.828Z,96186.50
2023-05-19T09:01:22.587Z,96186.88
2023-05-19T09:02:24.576Z,96186.28
2023-05-19T09:03:27.000Z,96189.69
2023-05-19T09:04:30.176Z,96190.38
2023-05-19T09:05:32.615Z,96187.91
2023-05-19T09:06:34.915Z,96182.19
2023-05-19T09:07:37.849Z,96177.19
2023-05-19T09:08:40.436Z,96184.53
2023-05-19T09:09:43.964Z,96182.47
2023-05-19T09:10:45.751Z,96193.00
2023-05-19T09:11:47.484Z,96189.31
2023-05-19T09:12:49.817Z,96189.09
2023-05-19T09:13:51.930Z,96182.00
2023-05-19T09:14:53.872Z,96188.13
2023-05-19T09:15:57.453Z,96183.81
2023-05-19T09:16:59.182Z,96181.53
2023-05-19T09:18:08.906Z,96184.81
2023-05-19T09:19:15.392Z,96173.63
2023-05-19T09:20:17.504Z,96176.94
2023-05-19T09:21:19.166Z,96177.09
2023-05-19T09:22:21.173Z,96179.97
2023-05-19T09:23:24.931Z,96182.41
2023-05-19T09:24:27.164Z,96183.84
2023-05-19T09:25:28.816Z,96175.31
2023-05-19T09:26:38.566Z,96186.88
2023-05-19T09:27:40.300Z,96187.66
2023-05-19T09:28:41.974Z,96187.91
2023-05-19T09:29:43.917Z,96184.94
2023-05-19T09:30:45.589Z,96181.72
2023-05-19T09:31:50.864Z,96181.50
2023-05-19T09:32:52.610Z,96185.09
2023-05-19T09:33:54.337Z,96183.72
2023-05-19T09:34:56.419Z,96166.41
2023-05-19T09:35:58.252Z,96180.38
2023-05-19T09:37:00.088Z,96169.56
2023-05-19T09:38:01.744Z,96180.78
2023-05-19T09:39:13.145Z,96176.63
2023-05-19T09:40:16.354Z,96178.03
2023-05-19T09:41:18.072Z,96170.97
2023-05-19T09:42:27.179Z,96186.56
2023-05-19T09:43:35.448Z,96174.53
2023-05-19T09:44:37.343Z,96176.50
2023-05-19T09:45:38.957Z,96185.75
2023-05-19T09:46:48.244Z,96180.50
2023-05-19T09:47:49.929Z,96168.34
2023-05-19T09:48:52.948Z,96179.47
2023-05-19T09:49:54.687Z,96173.63
2023-05-19T09:50:57.876Z,96178.22
2023-05-19T09:52:02.449Z,96179.13
2023-05-19T09:53:04.103Z,96167.56
2023-05-19T09:54:05.753Z,96172.16
2023-05-19T09:55:10.404Z,96162.31
2023-05-19T09:56:15.078Z,96173.19
2023-05-19T09:57:16.978Z,96170.53
2023-05-19T09:58:19.076Z,96170.44
2023-05-19T09:59:24.392Z,96165.59
2023-05-19T10:00:26.792Z,96160.81
2023-05-19T10:01:28.290Z,96166.88
2023-05-19T10:02:30.443Z,96161.16
2023-05-19T10:03:35.085Z,96163.09
2023-05-19T10:04:37.210Z,96158.25
2023-05-19T10:05:39.821Z,96158.16
2023-05-19T10:06:41.897Z,96156.81
2023-05-19T10:07:51.600Z,96164.25
2023-05-19T10:08:54.668Z,96157.59
2023-05-19T10:09:59.616Z,96163.66
2023-05-19T10:11:01.824Z,96154.84
2023-05-19T10:12:03.865Z,96156.44
2023-05-19T10:13:06.107Z,96155.38
2023-05-19T10:14:08.264Z,96159.63
2023-05-19T10:15:11.822Z,96159.72
2023-05-19T10:16:13.822Z,96163.63
2023-05-19T10:17:15.632Z,96165.94
2023-05-19T10:18:18.700Z,96162.56
2023-05-19T10:19:24.872Z,96160.63
2023-05-19T10:20:26.955Z,96163.19
2023-05-19T10:21:28.799Z,96167.59
2023-05-19T10:22:30.509Z,96179.34
2023-05-19T10:23:32.179Z,96161.03
2023-05-19T10:24:33.827Z,96163.19
2023-05-19T10:25:36.531Z,96173.97
2023-05-19T10:26:39.900Z,96173.53
2023-05-19T10:27:51.502Z,96171.91
2023-05-19T10:28:53.329Z,96173.50
2023-05-19T10:29:57.615Z,96164.81
2023-05-19T10:31:00.603Z,96169.41
2023-05-19T10:32:08.386Z,96172.59
2023-05-19T10:33:12.957Z,96173.06
2023-05-19T10:34:15.044Z,96166.63
2023-05-19T10:35:35.375Z,96167.63
2023-05-19T10:36:49.909Z,96171.75
2023-05-19T10:37:53.604Z,96169.94
2023-05-19T10:39:06.393Z,96166.94
2023-05-19T10:40:11.979Z,96160.06
2023-05-19T10:41:23.034Z,96162.28
2023-05-19T10:42:36.413Z,96160.47
2023-05-19T10:44:07.357Z,96162.75
2023-05-19T10:45:21.123Z,96154.25
2023-05-19T10:46:29.717Z,96162.06
2023-05-19T10:47:32.499Z,96166.50
2023-05-19T10:48:36.463Z,96154.47
2023-05-19T10:49:38.272Z,96155.75
2023-05-19T10:50:39.912Z,96156.31
2023-05-19T10:51:45.467Z,96154.94
2023-05-19T10:52:53.871Z,96156.97
2023-05-19T10:53:55.537Z,96160.66
2023-05-19T10:54:58.376Z,96157.25
2023-05-19T10:56:06.851Z,96156.78
2023-05-19T10:57:09.907Z,96156.22
2023-05-19T10:58:11.873Z,96167.13
2023-05-19T10:59:32.244Z,96159.09
2023-05-19T11:00:34.013Z,96164.81
2023-05-19T11:01:37.303Z,96163.44
2023-05-19T11:02:41.503Z,96168.81
2023-05-19T11:03:53.861Z,96152.19
2023-05-19T11:04:58.457Z,96155.16
2023-05-19T11:06:19.201Z,96163.22
2023-05-19T11:07:22.287Z,96164.81
2023-05-19T11:08:33.651Z,96165.94
2023-05-19T11:09:41.060Z,96173.72
2023-05-19T11:10:48.370Z,96181.69
2023-05-19T11:11:53.120Z,96178.25
2023-05-19T11:14:00.384Z,96179.38
2023-05-19T11:15:03.371Z,96165.66
2023-05-19T11:16:09.227Z,96175.13
2023-05-19T11:17:15.217Z,96181.09
2023-05-19T11:18:17.083Z,96171.34
2023-05-19T11:19:41.072Z,96178.22
2023-05-19T11:20:42.749Z,96179.25
2023-05-19T11:21:52.488Z,96167.78
2023-05-19T11:23:15.094Z,96164.03
2023-05-19T11:24:41.955Z,96172.34
2023-05-19T11:25:54.357Z,96168.94
2023-05-19T11:26:56.272Z,96168.59
2023-05-19T11:27:57.962Z,96173.50
2023-05-19T11:28:59.935Z,96166.66
2023-05-19T11:30:14.921Z,96171.56
2023-05-19T11:31:16.692Z,96165.59
2023-05-19T11:32:20.611Z,96163.63
2023-05-19T11:33:27.045Z,96169.50
2023-05-19T11:34:30.652Z,96166.84
2023-05-19T11:35:35.372Z,96162.94
2023-05-19T11:36:40.062Z,96153.88
2023-05-19T11:37:42.657Z,96159.72
2023-05-19T11:38:45.201Z,96156.63
2023-05-19T11:39:47.467Z,96161.88
2023-05-19T11:40:49.917Z,96164.50
2023-05-19T11:41:51.460Z,96162.00
2023-05-19T11:42:53.065Z,96167.03
2023-05-19T11:43:54.711Z,96159.09
2023-05-19T11:44:56.653Z,96167.06
2023-05-19T11:45:58.382Z,96172.00
2023-05-19T11:47:00.082Z,96159.03
2023-05-19T11:48:05.432Z,96173.72
2023-05-19T11:49:07.289Z,96167.69
2023-05-19T11:50:11.326Z,96172.72
2023-05-19T11:51:13.256Z,96175.56
2023-05-19T11:52:15.185Z,96168.47
2023-05-19T11:53:17.277Z,96174.28
2023-05-19T11:54:19.317Z,96168.16
2023-05-19T11:55:22.211Z,96161.38
2023-05-19T11:56:23.953Z,96165.69
2023-05-19T11:57:25.603Z,96152.53
2023-05-19T11:58:27.922Z,96165.34
2023-05-19T11:59:31.728Z,96161.53
2023-05-19T12:00:38.092Z,96158.72
2023-05-19T12:01:39.769Z,96164.69
2023-05-19T12:02:41.536Z,96163.53
2023-05-19T12:03:43.433Z,96155.06
2023-05-19T12:04:46.060Z,96157.69
2023-05-19T12:05:49.205Z,96156.16
2023-05-19T12:06:52.299Z,96162.47
2023-05-19T12:07:54.104Z,96162.16
2023-05-19T12:08:55.892Z,96168.47
2023-05-19T12:09:59.950Z,96166.88
2023-05-19T12:11:01.775Z,96172.00
2023-05-19T12:12:03.799Z,96167.31
2023-05-19T12:13:08.073Z,96164.69
2023-05-19T12:14:09.759Z,96166.31
2023-05-19T12:15:11.746Z,96162.50
2023-05-19T12:16:13.690Z,96163.28
2023-05-19T12:17:16.948Z,96159.75
2023-05-19T12:18:19.342Z,96159.03
2023-05-19T12:19:23.987Z,96157.00
2023-05-19T12:20:26.784Z,96151.50
2023-05-19T12:21:34.269Z,96159.41
2023-05-19T12:22:36.857Z,96156.75
2023-05-19T12:23:38.980Z,96153.19
2023-05-19T12:24:42.701Z,96155.72
2023-05-19T12:25:44.526Z,96156.75
2023-05-19T12:26:46.120Z,96162.75
2023-05-19T12:27:49.563Z,96167.53
2023-05-19T12:28:52.715Z,96159.03
2023-05-19T12:29:57.156Z,96158.94
2023-05-19T12:30:59.022Z,96161.22
2023-05-19T12:32:01.748Z,96167.25
2023-05-19T12:33:03.726Z,96170.47
2023-05-19T12:34:05.477Z,96166.13